Terminal Aerodrome Forecast
Issued by NWS Cleveland, OH

Home | Current Version | Previous Version | Graphics & Text | Print | Product List | Glossary On
Versions: 1 2 3 4 5 6 7 8 9 10 11 12 13 14 15 16 17 18
000
FTUS41 KCLE 251000 AAB
TAFCAK
TAF AMD
KCAK 251000Z 2510/2606 03012KT P6SM OVC025
      TEMPO 2510/2513 5SM -RA OVC025
     FM251400 10012KT P6SM BKN050 OVC100
     FM252000 05010KT P6SM VCSH OVC050
     FM260300 03010KT P6SM SCT050 BKN100=

USA.gov is the U.S. government's official web portal to all federal, state and local government web resources and services.